Time;durP1;ratioP1;P1;durP2;ratioP2;P2;SDS_P1;SDS_P2;PMS_P1;PMS_P2;Temp;Humidity;BMP_temperature;BMP_pressure;BME280_temperature;BME280_humidity;BME280_pressure;Samples;Min_cycle;Max_cycle;Signal;HPM_P1;HPM_P2
2023/01/28 00:00:30;;;;;;;30.17;14.10;;;;;;;-2.30;100.00;96189.91;1026429;28;20023;-71
2023/01/28 00:01:05;;;;;;;30.85;14.27;;;;;;;-2.33;100.00;96190.25;1031434;28;20022;-74
2023/01/28 00:01:35;;;;;;;31.86;14.38;;;;;;;-2.27;100.00;96199.84;1019878;29;20087;-76
2023/01/28 00:02:06;;;;;;;31.48;14.77;;;;;;;-2.33;100.00;96188.47;1018429;29;20091;-74
2023/01/28 00:02:36;;;;;;;30.48;13.90;;;;;;;-2.44;100.00;96187.09;1018510;29;20024;-73
2023/01/28 00:03:07;;;;;;;30.50;14.38;;;;;;;-2.39;100.00;96191.72;1023943;28;20020;-73
2023/01/28 00:03:38;;;;;;;33.30;14.88;;;;;;;-2.39;100.00;96197.66;1026819;28;20046;-73
2023/01/28 00:04:15;;;;;;;31.96;14.36;;;;;;;-2.38;100.00;96194.13;1022516;29;20023;-72
2023/01/28 00:04:46;;;;;;;34.85;14.82;;;;;;;-2.32;100.00;96202.91;1027517;28;20081;-72
2023/01/28 00:05:16;;;;;;;35.65;16.10;;;;;;;-2.32;100.00;96197.78;1021803;29;20310;-71
2023/01/28 00:05:51;;;;;;;34.95;15.55;;;;;;;-2.30;100.00;96198.41;1019919;28;20039;-71
2023/01/28 00:06:21;;;;;;;32.58;14.70;;;;;;;-2.29;100.00;96200.00;1026486;28;20089;-72
2023/01/28 00:06:52;;;;;;;31.65;15.18;;;;;;;-2.30;100.00;96195.84;1019877;29;20546;-72
2023/01/28 00:07:23;;;;;;;33.08;14.88;;;;;;;-2.29;100.00;96197.44;1019492;29;20028;-72
2023/01/28 00:07:54;;;;;;;30.94;14.60;;;;;;;-2.26;100.00;96193.75;1026208;28;20834;-73
2023/01/28 00:08:24;;;;;;;31.33;14.77;;;;;;;-2.24;100.00;96200.31;1026755;28;20111;-75
2023/01/28 00:08:55;;;;;;;34.10;15.43;;;;;;;-2.26;100.00;96191.16;1027231;28;20534;-74
2023/01/28 00:09:25;;;;;;;35.58;14.60;;;;;;;-2.28;100.00;96190.53;1026690;28;20037;-74
2023/01/28 00:09:56;;;;;;;33.72;15.35;;;;;;;-2.29;100.00;96194.88;1026669;28;20030;-74
2023/01/28 00:10:26;;;;;;;31.67;14.60;;;;;;;-2.39;100.00;96189.16;1024666;28;20027;-71
2023/01/28 00:11:00;;;;;;;33.67;15.05;;;;;;;-2.44;100.00;96188.88;1026405;28;20035;-72
2023/01/28 00:11:33;;;;;;;32.22;13.46;;;;;;;-2.43;100.00;96193.03;1031181;28;20038;-72
2023/01/28 00:12:04;;;;;;;32.78;13.70;;;;;;;-2.41;100.00;96194.47;1033234;28;20096;-71
2023/01/28 00:12:35;;;;;;;36.20;15.92;;;;;;;-2.48;100.00;96190.16;1030484;28;20031;-74
2023/01/28 00:13:06;;;;;;;31.05;14.43;;;;;;;-2.45;100.00;96192.41;1029129;28;20374;-75
2023/01/28 00:13:36;;;;;;;32.03;14.23;;;;;;;-2.42;100.00;96194.63;1026338;28;20022;-72
2023/01/28 00:14:07;;;;;;;35.38;13.80;;;;;;;-2.41;100.00;96188.53;1022706;29;20031;-71
2023/01/28 00:14:38;;;;;;;28.33;13.75;;;;;;;-2.43;100.00;96181.00;1030565;28;20022;-74
2023/01/28 00:15:09;;;;;;;31.63;13.65;;;;;;;-2.49;100.00;96178.31;1022723;29;20027;-73
2023/01/28 00:15:40;;;;;;;31.40;14.20;;;;;;;-2.41;100.00;96191.13;1021948;28;20089;-75
2023/01/28 00:16:10;;;;;;;35.03;16.17;;;;;;;-2.41;100.00;96189.34;1018846;29;20511;-72
2023/01/28 00:16:40;;;;;;;34.40;15.00;;;;;;;-2.40;100.00;96190.13;1026225;28;20035;-72
2023/01/28 00:17:11;;;;;;;37.67;15.65;;;;;;;-2.44;100.00;96194.03;1026433;28;20026;-72
2023/01/28 00:17:41;;;;;;;33.00;14.63;;;;;;;-2.40;100.00;96188.34;1026611;28;20077;-73
2023/01/28 00:18:12;;;;;;;33.42;14.00;;;;;;;-2.40;100.00;96193.50;1029115;28;20031;-72
2023/01/28 00:18:43;;;;;;;32.75;14.65;;;;;;;-2.40;100.00;96190.13;1026305;28;20031;-72
2023/01/28 00:19:13;;;;;;;32.35;14.95;;;;;;;-2.44;100.00;96184.53;1022767;29;20556;-73
2023/01/28 00:19:43;;;;;;;31.10;14.00;;;;;;;-2.52;100.00;96170.94;1023778;28;20039;-72
2023/01/28 00:20:14;;;;;;;31.45;15.10;;;;;;;-2.44;100.00;96178.59;1022641;29;20677;-73
2023/01/28 00:21:00;;;;;;;32.90;14.27;;;;;;;-2.45;100.00;96177.81;1015621;29;20062;-75
2023/01/28 00:21:31;;;;;;;31.72;14.78;;;;;;;-2.42;100.00;96181.78;1018438;29;20034;-73
2023/01/28 00:22:03;;;;;;;37.47;15.52;;;;;;;-2.43;100.00;96175.84;1020562;29;20035;-72
2023/01/28 00:22:33;;;;;;;35.50;14.54;;;;;;;-2.39;100.00;96182.25;1022321;28;20528;-72
2023/01/28 00:23:04;;;;;;;32.80;15.32;;;;;;;-2.34;100.00;96189.47;1021543;28;20039;-75
2023/01/28 00:23:36;;;;;;;37.15;15.85;;;;;;;-2.33;100.00;96188.47;1018950;29;20031;-72
2023/01/28 00:24:08;;;;;;;35.46;15.72;;;;;;;-2.29;100.00;96194.06;1027238;28;20038;-74
2023/01/28 00:24:38;;;;;;;32.60;14.86;;;;;;;-2.33;100.00;96185.91;1026511;28;20060;-71
2023/01/28 00:25:09;;;;;;;34.78;13.90;;;;;;;-2.33;100.00;96191.03;1026859;28;20035;-72
2023/01/28 00:25:39;;;;;;;33.65;14.75;;;;;;;-2.43;100.00;96187.91;1028329;28;20602;-72
2023/01/28 00:26:11;;;;;;;34.20;15.20;;;;;;;-2.48;100.00;96185.03;1026359;28;20030;-72
2023/01/28 00:26:42;;;;;;;33.50;13.88;;;;;;;-2.50;100.00;96185.22;1022316;29;20051;-72
2023/01/28 00:27:13;;;;;;;32.52;15.16;;;;;;;-2.55;100.00;96181.53;1014580;29;20046;-74
2023/01/28 00:27:44;;;;;;;32.70;14.98;;;;;;;-2.50;100.00;96189.56;1018720;29;20463;-72
2023/01/28 00:28:14;;;;;;;34.64;15.20;;;;;;;-2.58;100.00;96180.13;1031891;28;20041;-73
2023/01/28 00:28:45;;;;;;;38.95;15.60;;;;;;;-2.56;100.00;96183.31;1030657;28;20034;-74
2023/01/28 00:29:15;;;;;;;35.75;16.27;;;;;;;-2.57;100.00;96174.03;1019561;28;20027;-71
2023/01/28 00:29:46;;;;;;;35.70;16.60;;;;;;;-2.48;100.00;96192.72;1018606;29;20047;-72
2023/01/28 00:30:18;;;;;;;39.67;16.58;;;;;;;-2.49;100.00;96186.81;1018677;29;20035;-72
2023/01/28 00:30:51;;;;;;;37.36;16.72;;;;;;;-2.47;100.00;96189.22;1022653;28;20270;-72
2023/01/28 00:31:26;;;;;;;35.58;15.36;;;;;;;-2.51;100.00;96185.41;1023356;28;20515;-73
2023/01/28 00:31:56;;;;;;;33.20;15.18;;;;;;;-2.50;100.00;96187.78;1016065;29;20115;-73
2023/01/28 00:32:27;;;;;;;34.70;15.02;;;;;;;-2.45;100.00;96189.81;1018494;29;20027;-73
2023/01/28 00:32:58;;;;;;;39.64;15.86;;;;;;;-2.46;100.00;96190.81;1018313;29;20067;-74
2023/01/28 00:33:28;;;;;;;35.75;14.60;;;;;;;-2.44;100.00;96194.03;1028954;28;20031;-74
2023/01/28 00:33:58;;;;;;;35.33;14.85;;;;;;;-2.46;100.00;96190.81;1027951;28;20026;-73
2023/01/28 00:34:29;;;;;;;35.70;14.65;;;;;;;-2.50;100.00;96185.22;1022707;29;20544;-73
2023/01/28 00:34:59;;;;;;;36.88;17.00;;;;;;;-2.51;100.00;96187.97;1018625;29;20043;-72
2023/01/28 00:35:30;;;;;;;30.92;14.85;;;;;;;-2.53;100.00;96192.47;1014166;29;20024;-72
2023/01/28 00:36:00;;;;;;;38.85;16.10;;;;;;;-2.56;100.00;96173.03;1014594;29;20565;-74
2023/01/28 00:36:31;;;;;;;36.92;16.13;;;;;;;-2.49;100.00;96189.38;1018894;29;20051;-72
2023/01/28 00:37:01;;;;;;;30.70;15.45;;;;;;;-2.52;100.00;96183.78;1018667;29;20020;-72
2023/01/28 00:37:32;;;;;;;35.17;15.00;;;;;;;-2.52;100.00;96181.19;1022005;28;20473;-71
2023/01/28 00:38:03;;;;;;;38.33;15.82;;;;;;;-2.55;100.00;96181.53;1022544;29;20035;-74
2023/01/28 00:38:34;;;;;;;32.38;15.30;;;;;;;-2.50;100.00;96186.97;1014673;29;20387;-73
2023/01/28 00:39:04;;;;;;;38.63;15.23;;;;;;;-2.58;100.00;96176.75;1014612;29;20039;-73
2023/01/28 00:39:37;;;;;;;33.66;14.98;;;;;;;-2.51;100.00;96193.09;1014460;29;20043;-75
2023/01/28 00:40:09;;;;;;;31.48;15.32;;;;;;;-2.68;100.00;96166.69;1015202;29;20469;-74
2023/01/28 00:40:39;;;;;;;35.56;15.38;;;;;;;-2.59;100.00;96186.22;1015154;29;20127;-72
2023/01/28 00:41:14;;;;;;;36.97;14.90;;;;;;;-2.58;100.00;96184.44;1014782;29;20103;-73
2023/01/28 00:41:44;;;;;;;40.34;17.22;;;;;;;-2.57;100.00;96184.28;1018273;29;20028;-73
2023/01/28 00:42:15;;;;;;;38.38;15.38;;;;;;;-2.54;100.00;96188.28;1014691;29;20036;-72
2023/01/28 00:42:45;;;;;;;42.08;16.58;;;;;;;-2.54;100.00;96185.72;1018404;29;20119;-73
2023/01/28 00:43:16;;;;;;;31.55;14.65;;;;;;;-2.63;100.00;96185.75;1018453;29;20031;-74
2023/01/28 00:43:47;;;;;;;33.05;14.35;;;;;;;-2.66;100.00;96180.16;1018367;29;20066;-72
2023/01/28 00:44:18;;;;;;;37.67;15.85;;;;;;;-2.61;100.00;96194.09;1022291;28;20074;-73
2023/01/28 00:44:48;;;;;;;37.50;16.68;;;;;;;-2.56;100.00;96185.09;1018541;29;20106;-73
2023/01/28 00:45:19;;;;;;;35.00;14.77;;;;;;;-2.55;100.00;96184.09;1010731;29;20029;-74
2023/01/28 00:45:49;;;;;;;33.92;14.93;;;;;;;-2.52;100.00;96186.34;1010043;29;20025;-73
2023/01/28 00:46:20;;;;;;;36.75;16.20;;;;;;;-2.52;100.00;96184.56;1018653;29;20024;-73
2023/01/28 00:46:51;;;;;;;41.65;15.90;;;;;;;-2.49;100.00;96186.00;1022876;28;20845;-73
2023/01/28 00:47:21;;;;;;;41.15;15.23;;;;;;;-2.54;100.00;96185.72;1022340;28;20197;-73
2023/01/28 00:47:52;;;;;;;38.00;15.15;;;;;;;-2.55;100.00;96186.69;1014569;29;20031;-72
2023/01/28 00:48:22;;;;;;;42.55;16.50;;;;;;;-2.63;100.00;96180.63;1018795;29;20020;-72
2023/01/28 00:48:53;;;;;;;37.05;16.17;;;;;;;-2.62;100.00;96187.38;1018563;29;20015;-73
2023/01/28 00:49:23;;;;;;;36.28;15.88;;;;;;;-2.63;100.00;96185.75;1022353;28;20512;-73
2023/01/28 00:49:54;;;;;;;40.38;16.40;;;;;;;-2.66;100.00;96187.88;1018331;29;20032;-72
2023/01/28 00:50:24;;;;;;;37.40;15.52;;;;;;;-2.65;100.00;96184.31;1022758;29;20615;-72
2023/01/28 00:50:55;;;;;;;38.55;16.17;;;;;;;-2.63;100.00;96179.81;1022346;28;20119;-74
2023/01/28 00:51:26;;;;;;;34.02;15.14;;;;;;;-2.68;100.00;96177.78;1026417;28;20105;-74
2023/01/28 00:51:57;;;;;;;32.70;14.23;;;;;;;-2.61;100.00;96183.03;1026071;28;20030;-72
2023/01/28 00:52:27;;;;;;;38.40;16.52;;;;;;;-2.61;100.00;96188.97;1026283;28;20019;-72
2023/01/28 00:52:58;;;;;;;36.55;16.58;;;;;;;-2.56;100.00;96187.66;1022885;28;20030;-73
2023/01/28 00:53:28;;;;;;;37.92;16.38;;;;;;;-2.59;100.00;96188.78;1018817;29;20510;-72
2023/01/28 00:53:59;;;;;;;39.38;17.02;;;;;;;-2.62;100.00;96182.25;1012756;29;20032;-74
2023/01/28 00:54:29;;;;;;;35.35;16.02;;;;;;;-2.57;100.00;96183.50;1022294;28;20035;-74
2023/01/28 00:55:00;;;;;;;44.92;16.92;;;;;;;-2.58;100.00;96184.44;1022384;29;20035;-73
2023/01/28 00:55:30;;;;;;;37.55;17.73;;;;;;;-2.57;100.00;96186.84;1022006;28;20805;-73
2023/01/28 00:56:01;;;;;;;33.65;15.45;;;;;;;-2.63;100.00;96179.81;1026011;28;20038;-72
2023/01/28 00:56:32;;;;;;;41.64;16.74;;;;;;;-2.55;100.00;96186.69;1018657;29;20516;-74
2023/01/28 00:57:02;;;;;;;36.08;14.77;;;;;;;-2.54;100.00;96190.88;1026366;28;20023;-75
2023/01/28 00:57:32;;;;;;;37.97;17.10;;;;;;;-2.55;100.00;96184.09;1018086;29;20611;-72
2023/01/28 00:58:03;;;;;;;39.60;16.23;;;;;;;-2.50;100.00;96184.41;1026385;28;20026;-72
2023/01/28 00:58:33;;;;;;;37.92;16.33;;;;;;;-2.50;100.00;96186.97;1026404;28;20408;-72
2023/01/28 00:59:04;;;;;;;35.40;15.57;;;;;;;-2.49;100.00;96184.22;1026640;28;20031;-71
2023/01/28 00:59:34;;;;;;;35.50;15.60;;;;;;;-2.63;100.00;96170.34;1026197;28;20046;-73
2023/01/28 01:00:06;;;;;;;37.42;16.85;;;;;;;-2.55;100.00;96173.84;1026618;28;20054;-74
2023/01/28 01:00:36;;;;;;;36.64;15.36;;;;;;;-2.50;100.00;96181.84;1022322;29;20019;-72
2023/01/28 01:01:11;;;;;;;36.53;16.23;;;;;;;-2.46;100.00;96185.66;1016436;29;20040;-73
2023/01/28 01:01:42;;;;;;;36.26;16.32;;;;;;;-2.48;100.00;96185.84;1017957;29;20039;-71
2023/01/28 01:02:12;;;;;;;34.45;16.10;;;;;;;-2.57;100.00;96175.78;1015877;29;20599;-72
2023/01/28 01:02:42;;;;;;;36.25;16.80;;;;;;;-2.53;100.00;96179.63;1020045;28;20038;-73
2023/01/28 01:03:13;;;;;;;38.33;17.30;;;;;;;-2.44;100.00;96184.53;1018549;29;20031;-73
2023/01/28 01:03:43;;;;;;;37.17;16.13;;;;;;;-2.44;100.00;96188.88;1022708;29;20031;-74
2023/01/28 01:04:25;;;;;;;34.50;16.58;;;;;;;-2.42;100.00;96192.06;1018371;29;20520;-73
2023/01/28 01:04:58;;;;;;;33.14;15.60;;;;;;;-2.47;100.00;96186.66;1024008;28;20027;-73
2023/01/28 01:05:29;;;;;;;33.28;14.38;;;;;;;-2.50;100.00;96186.97;1016118;29;20012;-73
2023/01/28 01:05:59;;;;;;;38.25;14.98;;;;;;;-2.48;100.00;96185.03;1013802;29;20033;-74
2023/01/28 01:06:34;;;;;;;34.83;15.88;;;;;;;-2.54;100.00;96178.03;1014702;29;20028;-74
2023/01/28 01:07:05;;;;;;;38.80;14.36;;;;;;;-2.50;100.00;96192.91;1022700;29;20027;-72
2023/01/28 01:07:41;;;;;;;38.15;16.38;;;;;;;-2.48;100.00;96193.56;1022604;29;20066;-75
2023/01/28 01:08:12;;;;;;;32.74;14.00;;;;;;;-2.48;100.00;96187.59;1018612;29;20020;-74
2023/01/28 01:08:49;;;;;;;33.83;15.70;;;;;;;-2.52;100.00;96194.03;1026464;28;20035;-72
2023/01/28 01:09:21;;;;;;;35.20;15.88;;;;;;;-2.48;100.00;96197.88;1022425;28;20027;-74
2023/01/28 01:09:51;;;;;;;39.88;15.56;;;;;;;-2.45;100.00;96192.41;1019173;29;20126;-76
2023/01/28 01:10:22;;;;;;;36.63;16.42;;;;;;;-2.44;100.00;96199.16;1018504;29;20047;-73
2023/01/28 01:10:52;;;;;;;37.15;15.50;;;;;;;-2.46;100.00;96196.75;1018549;29;20059;-71
2023/01/28 01:11:23;;;;;;;39.60;15.75;;;;;;;-2.49;100.00;96189.38;1013826;29;20024;-73
2023/01/28 01:11:54;;;;;;;35.35;17.23;;;;;;;-2.44;100.00;96194.81;1014466;29;20106;-72
2023/01/28 01:12:24;;;;;;;32.72;15.40;;;;;;;-2.44;100.00;96191.44;1022539;28;21113;-74
2023/01/28 01:12:56;;;;;;;40.90;16.23;;;;;;;-2.53;100.00;96187.31;1014423;29;20020;-73
2023/01/28 01:13:27;;;;;;;40.14;16.28;;;;;;;-2.47;100.00;96194.34;1022802;28;20115;-74
2023/01/28 01:13:58;;;;;;;34.65;15.77;;;;;;;-2.53;100.00;96185.53;1025943;28;20114;-75
2023/01/28 01:14:28;;;;;;;46.17;16.65;;;;;;;-2.43;100.00;96200.75;1029925;28;20019;-74
2023/01/28 01:14:59;;;;;;;37.88;15.40;;;;;;;-2.49;100.00;96186.81;1029442;28;20022;-74
2023/01/28 01:15:29;;;;;;;36.55;16.35;;;;;;;-2.50;100.00;96184.41;1025956;28;20026;-74
2023/01/28 01:16:07;;;;;;;37.83;16.13;;;;;;;-2.48;100.00;96195.31;1026247;28;20034;-72
2023/01/28 01:16:38;;;;;;;32.72;15.46;;;;;;;-2.57;100.00;96184.28;1018362;29;20054;-73
2023/01/28 01:17:08;;;;;;;41.40;16.25;;;;;;;-2.52;100.00;96201.75;1014622;29;20454;-73
2023/01/28 01:17:43;;;;;;;37.25;16.35;;;;;;;-2.53;100.00;96197.59;1015601;29;20020;-71
2023/01/28 01:18:13;;;;;;;38.30;16.38;;;;;;;-2.48;100.00;96197.88;1018893;29;20027;-73
2023/01/28 01:18:44;;;;;;;40.92;17.05;;;;;;;-2.57;100.00;96193.78;1018972;29;20629;-74
2023/01/28 01:19:14;;;;;;;35.85;15.73;;;;;;;-2.48;100.00;96203.00;1022826;28;20023;-73
2023/01/28 01:19:45;;;;;;;42.42;16.98;;;;;;;-2.53;100.00;96192.47;1021797;28;20505;-72
2023/01/28 01:20:20;;;;;;;35.90;14.48;;;;;;;-2.43;100.00;96204.09;1014692;29;20097;-74
2023/01/28 01:20:55;;;;;;;37.94;15.70;;;;;;;-2.40;100.00;96200.41;1018400;29;20112;-72
2023/01/28 01:21:27;;;;;;;35.34;15.42;;;;;;;-2.45;100.00;96192.41;1018334;29;20266;-72
2023/01/28 01:21:58;;;;;;;36.40;16.02;;;;;;;-2.41;100.00;96196.25;1016217;29;20432;-73
2023/01/28 01:22:30;;;;;;;36.65;16.48;;;;;;;-2.49;100.00;96191.16;1011521;29;20144;-75
2023/01/28 01:23:00;;;;;;;35.38;15.14;;;;;;;-2.42;100.00;96197.19;1018267;29;20039;-73
2023/01/28 01:23:31;;;;;;;33.17;14.73;;;;;;;-2.49;100.00;96186.00;1022029;29;20527;-73
2023/01/28 01:24:01;;;;;;;34.95;15.73;;;;;;;-2.40;100.00;96200.41;1018553;29;20028;-74
2023/01/28 01:24:32;;;;;;;38.63;16.10;;;;;;;-2.43;100.00;96205.88;1022255;29;20016;-73
2023/01/28 01:25:04;;;;;;;35.84;15.60;;;;;;;-2.43;100.00;96201.53;1022169;28;20456;-73
2023/01/28 01:25:34;;;;;;;33.84;16.18;;;;;;;-2.42;100.00;96203.13;1021924;28;20295;-74
2023/01/28 01:26:05;;;;;;;36.10;14.65;;;;;;;-2.44;100.00;96202.53;1022260;28;20568;-73
2023/01/28 01:26:35;;;;;;;37.40;17.15;;;;;;;-2.51;100.00;96193.09;1018425;29;20028;-74
2023/01/28 01:27:06;;;;;;;37.92;15.45;;;;;;;-2.48;100.00;96192.72;1018587;29;20059;-72
2023/01/28 01:27:36;;;;;;;35.92;16.08;;;;;;;-2.47;100.00;96204.63;1018313;29;20086;-72
2023/01/28 01:28:07;;;;;;;34.42;15.70;;;;;;;-2.47;100.00;96200.28;1022426;28;20086;-72
2023/01/28 01:28:37;;;;;;;34.95;15.48;;;;;;;-2.60;100.00;96194.91;1022606;29;20058;-72
2023/01/28 01:29:08;;;;;;;35.00;15.43;;;;;;;-2.58;100.00;96192.97;1014490;29;20044;-72
2023/01/28 01:29:39;;;;;;;36.16;16.34;;;;;;;-2.50;100.00;96200.63;1018100;29;20032;-73
2023/01/28 01:30:11;;;;;;;37.58;14.23;;;;;;;-2.58;100.00;96195.53;1017183;29;20032;-73
2023/01/28 01:30:41;;;;;;;34.10;16.00;;;;;;;-2.51;100.00;96204.16;1022725;28;20019;-75
2023/01/28 01:31:14;;;;;;;34.95;15.38;;;;;;;-2.52;100.00;96206.88;1022508;29;20528;-74
2023/01/28 01:31:44;;;;;;;38.86;15.56;;;;;;;-2.51;100.00;96201.59;1022705;28;20121;-73
2023/01/28 01:32:15;;;;;;;41.45;15.73;;;;;;;-2.52;100.00;96199.97;1022348;28;20095;-72
2023/01/28 01:32:45;;;;;;;38.85;16.10;;;;;;;-2.49;100.00;96196.28;1022650;29;20031;-74
2023/01/28 01:33:16;;;;;;;36.45;15.60;;;;;;;-2.49;100.00;96206.56;1022265;28;20331;-72
2023/01/28 01:33:48;;;;;;;33.67;14.93;;;;;;;-2.54;100.00;96199.38;1022330;28;20126;-73
2023/01/28 01:34:18;;;;;;;39.94;15.86;;;;;;;-2.54;100.00;96214.00;1030475;28;20021;-75
2023/01/28 01:34:49;;;;;;;38.88;15.93;;;;;;;-2.55;100.00;96202.88;1026359;28;20885;-74
2023/01/28 01:35:19;;;;;;;35.97;14.68;;;;;;;-2.58;100.00;96202.44;1026455;28;20033;-74
2023/01/28 01:35:56;;;;;;;37.67;15.95;;;;;;;-2.62;100.00;96202.78;1020315;28;20027;-74
2023/01/28 01:36:26;;;;;;;37.76;15.50;;;;;;;-2.62;100.00;96199.41;1017531;29;20031;-73
2023/01/28 01:36:57;;;;;;;38.00;16.00;;;;;;;-2.63;100.00;96190.91;1020907;29;20083;-74
2023/01/28 01:37:28;;;;;;;35.38;15.32;;;;;;;-2.51;100.00;96209.31;1026406;28;20105;-74
2023/01/28 01:37:58;;;;;;;44.30;16.38;;;;;;;-2.53;100.00;96211.22;1014165;29;20112;-74
2023/01/28 01:38:29;;;;;;;42.42;17.00;;;;;;;-2.58;100.00;96202.44;1014630;29;20389;-73
2023/01/28 01:38:59;;;;;;;37.33;15.95;;;;;;;-2.52;100.00;96212.03;1018211;29;20032;-74
2023/01/28 01:39:29;;;;;;;38.88;16.13;;;;;;;-2.52;100.00;96212.81;1018518;29;20564;-72
2023/01/28 01:40:06;;;;;;;37.03;15.65;;;;;;;-2.60;100.00;96200.03;1022200;29;20130;-72
2023/01/28 01:40:37;;;;;;;32.78;14.64;;;;;;;-2.56;100.00;96211.56;1018778;29;20595;-73
2023/01/28 01:41:19;;;;;;;38.28;16.48;;;;;;;-2.62;100.00;96202.78;1022130;29;20050;-72
2023/01/28 01:41:49;;;;;;;34.22;15.58;;;;;;;-2.53;100.00;96213.00;1014389;29;20046;-72
2023/01/28 01:42:20;;;;;;;34.38;14.88;;;;;;;-2.57;100.00;96206.63;1014576;29;20107;-72
2023/01/28 01:42:50;;;;;;;42.53;16.38;;;;;;;-2.61;100.00;96216.44;1008249;29;20047;-72
2023/01/28 01:43:21;;;;;;;36.95;15.93;;;;;;;-2.57;100.00;96219.47;1022483;28;20035;-72
2023/01/28 01:43:54;;;;;;;36.97;15.48;;;;;;;-2.57;100.00;96214.31;1022103;28;20437;-71
2023/01/28 01:44:59;;;;;;;33.06;14.58;;;;;;;-2.51;100.00;96218.78;1018130;29;20859;-73
2023/01/28 01:45:29;;;;;;;36.06;15.48;;;;;;;-2.57;100.00;96211.75;1018640;29;20433;-74
2023/01/28 01:46:00;;;;;;;37.63;15.75;;;;;;;-2.64;100.00;96206.50;1018894;28;20135;-72
2023/01/28 01:46:43;;;;;;;36.38;14.68;;;;;;;-2.59;100.00;96221.38;1018439;29;20024;-73
2023/01/28 01:47:13;;;;;;;35.76;15.32;;;;;;;-2.59;100.00;96221.38;1018455;29;20059;-73
2023/01/28 01:47:48;;;;;;;38.40;15.43;;;;;;;-2.57;100.00;96209.19;1018380;29;20035;-72
2023/01/28 01:48:24;;;;;;;40.48;15.16;;;;;;;-2.52;100.00;96222.31;1026232;28;20817;-72
2023/01/28 01:48:57;;;;;;;40.56;15.56;;;;;;;-2.55;100.00;96222.63;1014387;29;20110;-74
2023/01/28 01:49:28;;;;;;;40.42;16.20;;;;;;;-2.59;100.00;96218.81;1018260;29;20035;-72
2023/01/28 01:50:00;;;;;;;37.78;15.50;;;;;;;-2.64;100.00;96220.13;1010489;29;20032;-72
2023/01/28 01:50:31;;;;;;;41.82;15.66;;;;;;;-2.61;100.00;96222.34;1022166;29;20054;-75
2023/01/28 01:51:05;;;;;;;35.38;14.93;;;;;;;-2.66;100.00;96222.03;1022148;28;20039;-72
2023/01/28 01:51:35;;;;;;;40.48;14.94;;;;;;;-2.62;100.00;96223.34;1018435;29;20034;-73
2023/01/28 01:52:07;;;;;;;36.13;14.98;;;;;;;-2.59;100.00;96226.53;1018489;29;20079;-74
2023/01/28 01:52:38;;;;;;;42.36;17.08;;;;;;;-2.63;100.00;96221.72;1017853;29;20139;-75
2023/01/28 01:53:15;;;;;;;38.10;15.55;;;;;;;-2.57;100.00;96215.13;1018200;29;20052;-74
2023/01/28 01:53:51;;;;;;;37.14;15.70;;;;;;;-2.51;100.00;96223.94;1018550;29;20114;-73
2023/01/28 01:54:22;;;;;;;36.04;15.40;;;;;;;-2.53;100.00;96215.56;1012592;29;20044;-74
2023/01/28 01:54:53;;;;;;;35.90;15.15;;;;;;;-2.65;100.00;96210.81;1022216;29;20480;-73
2023/01/28 01:55:29;;;;;;;32.80;14.16;;;;;;;-2.54;100.00;96225.06;1018381;29;20517;-72
2023/01/28 01:56:00;;;;;;;35.54;15.22;;;;;;;-2.57;100.00;96225.38;1021825;28;20482;-71
2023/01/28 01:56:34;;;;;;;40.52;16.48;;;;;;;-2.59;100.00;96226.53;1026137;28;20019;-74
2023/01/28 01:57:04;;;;;;;39.72;15.42;;;;;;;-2.59;100.00;96223.94;1022455;29;20043;-74
2023/01/28 01:57:38;;;;;;;38.97;15.68;;;;;;;-2.57;100.00;96224.59;1019146;28;20463;-73
2023/01/28 01:58:14;;;;;;;34.66;14.60;;;;;;;-2.58;100.00;96228.94;1022041;29;20056;-74
2023/01/28 01:58:46;;;;;;;35.84;14.96;;;;;;;-2.57;100.00;96224.59;1018350;29;20028;-72
2023/01/28 01:59:20;;;;;;;39.22;16.52;;;;;;;-2.58;100.00;96217.84;1018260;29;20418;-72
2023/01/28 01:59:50;;;;;;;38.16;15.70;;;;;;;-2.54;100.00;96226.81;1025968;28;20426;-73
2023/01/28 02:00:21;;;;;;;45.05;17.23;;;;;;;-2.54;100.00;96221.69;1014312;29;20032;-73
2023/01/28 02:00:51;;;;;;;38.15;16.02;;;;;;;-2.58;100.00;96218.66;1014217;29;20617;-72
2023/01/28 02:01:24;;;;;;;36.88;15.55;;;;;;;-2.57;100.00;96222.03;1014612;29;20083;-72
2023/01/28 02:01:55;;;;;;;41.38;16.16;;;;;;;-2.62;100.00;96207.94;1022292;29;20654;-73
2023/01/28 02:02:25;;;;;;;35.88;15.70;;;;;;;-2.58;100.00;96208.38;1022566;29;20023;-72
2023/01/28 02:02:57;;;;;;;35.88;15.45;;;;;;;-2.57;100.00;96216.88;1026026;28;20029;-75
2023/01/28 02:03:36;;;;;;;37.90;15.84;;;;;;;-2.58;100.00;96217.84;1018560;29;20020;-72
2023/01/28 02:04:11;;;;;;;32.32;14.16;;;;;;;-2.50;100.00;96221.19;1018438;29;20103;-71
2023/01/28 02:04:43;;;;;;;41.02;15.78;;;;;;;-2.59;100.00;96201.63;1026146;28;20022;-73
2023/01/28 02:05:15;;;;;;;31.56;15.28;;;;;;;-2.66;100.00;96204.06;1022192;29;20033;-73
2023/01/28 02:05:46;;;;;;;32.00;14.60;;;;;;;-2.54;100.00;96214.78;1017655;29;20119;-72
2023/01/28 02:06:16;;;;;;;36.55;14.70;;;;;;;-2.58;100.00;96202.44;1010014;29;20029;-73
2023/01/28 02:06:46;;;;;;;35.17;14.95;;;;;;;-2.47;100.00;96212.34;1014554;29;20090;-73
2023/01/28 02:07:17;;;;;;;31.50;14.70;;;;;;;-2.51;100.00;96206.75;1014448;29;20028;-74
2023/01/28 02:07:50;;;;;;;36.50;14.60;;;;;;;-2.47;100.00;96214.91;1026370;28;20038;-73
2023/01/28 02:08:20;;;;;;;34.42;14.70;;;;;;;-2.47;100.00;96212.34;1030150;28;20026;-73
2023/01/28 02:08:54;;;;;;;35.22;15.30;;;;;;;-2.55;100.00;96196.94;1030185;28;20117;-73
2023/01/28 02:09:29;;;;;;;36.10;15.58;;;;;;;-2.50;100.00;96204.97;1025343;28;20019;-74
2023/01/28 02:10:00;;;;;;;36.60;14.18;;;;;;;-2.42;100.00;96212.63;1018023;29;20032;-74
2023/01/28 02:10:30;;;;;;;29.73;14.18;;;;;;;-2.52;100.00;96192.28;1018356;29;20058;-74
2023/01/28 02:11:03;;;;;;;35.00;14.55;;;;;;;-2.40;100.00;96210.69;1022709;28;20027;-70
2023/01/28 02:11:36;;;;;;;32.46;14.40;;;;;;;-2.40;100.00;96210.69;1018544;29;20039;-72
2023/01/28 02:12:18;;;;;;;29.96;13.18;;;;;;;-2.39;100.00;96217.41;1014371;29;20063;-72
2023/01/28 02:12:52;;;;;;;33.68;15.30;;;;;;;-2.38;100.00;96221.59;1026072;28;20018;-71
2023/01/28 02:13:25;;;;;;;29.60;14.02;;;;;;;-2.46;100.00;96211.34;1026200;28;20094;-72
2023/01/28 02:13:56;;;;;;;33.88;14.60;;;;;;;-2.43;100.00;96211.03;1022180;29;20027;-71
2023/01/28 02:14:28;;;;;;;37.44;15.12;;;;;;;-2.48;100.00;96205.56;1022253;29;20071;-73
2023/01/28 02:15:05;;;;;;;35.66;14.32;;;;;;;-2.43;100.00;96221.31;1025883;28;20456;-71
2023/01/28 02:15:35;;;;;;;33.74;14.46;;;;;;;-2.44;100.00;96223.06;1020773;29;20688;-75
2023/01/28 02:16:05;;;;;;;34.20;14.93;;;;;;;-2.42;100.00;96220.31;1021146;29;20039;-72
2023/01/28 02:16:39;;;;;;;29.74;13.82;;;;;;;-2.39;100.00;96217.41;1019682;29;20023;-72
2023/01/28 02:17:09;;;;;;;33.30;14.43;;;;;;;-2.41;100.00;96225.31;1027109;28;20324;-74
2023/01/28 02:17:39;;;;;;;34.10;13.73;;;;;;;-2.40;100.00;96223.53;1026068;28;20093;-75
2023/01/28 02:18:10;;;;;;;32.25;14.98;;;;;;;-2.51;100.00;96211.09;1014170;29;20032;-71
2023/01/28 02:18:43;;;;;;;39.10;14.66;;;;;;;-2.49;100.00;96219.41;1018376;29;20032;-73
2023/01/28 02:19:14;;;;;;;32.28;13.93;;;;;;;-2.57;100.00;96209.19;1022218;28;20418;-74
2023/01/28 02:19:50;;;;;;;39.17;16.05;;;;;;;-2.49;100.00;96221.97;1026080;28;20027;-74
2023/01/28 02:20:23;;;;;;;35.10;15.64;;;;;;;-2.45;100.00;96218.09;1022310;29;20035;-74
2023/01/28 02:21:08;;;;;;;35.28;14.68;;;;;;;-2.48;100.00;96221.81;1017936;29;20086;-74
2023/01/28 02:22:01;;;;;;;35.88;13.94;;;;;;;-2.53;100.00;96225.84;1021095;28;20106;-72
2023/01/28 02:22:57;;;;;;;33.36;13.88;;;;;;;-2.58;100.00;96220.41;1027069;28;20023;-75
2023/01/28 02:23:58;;;;;;;31.16;13.86;;;;;;;-2.58;100.00;96222.97;1022620;28;20070;-74
2023/01/28 02:24:35;;;;;;;34.06;14.90;;;;;;;-2.65;100.00;96223.66;1022124;28;20536;-75
2023/01/28 02:25:38;;;;;;;31.84;14.30;;;;;;;-2.77;100.00;96212.16;1024811;28;20086;-74
2023/01/28 02:26:57;;;;;;;34.82;13.48;;;;;;;-2.68;100.00;96224.00;1030435;28;20034;-74
2023/01/28 02:27:56;;;;;;;32.80;14.38;;;;;;;-2.64;100.00;96222.69;1011081;29;20115;-74